Terminal Aerodrome Forecast
Issued by NWS

Home | Current Version | Previous Version | Text Only | Print | Product List | Glossary On
Versions: 1 2 3 4 5 6 7 8 9 10 11 12 13 14 15
000
FTUS41 KBTV 211743
TAFRUT
TAF
KRUT 211743Z 2118/2218 23007KT P6SM FEW045 FEW200
     FM220000 17004KT P6SM SKC
     FM221500 20008KT P6SM SCT100
     FM221600 20009G15KT P6SM VCSH FEW060 SCT090
     FM221700 21010G17KT P6SM VCSH SCT060 BKN080=

USA.gov is the U.S. government's official web portal to all federal, state and local government web resources and services.